sensor_id;sensor_type;location;lat;lon;timestamp;pressure;altitude;pressure_sealevel;temperature;humidity
12763;BME280;6445;52.490;13.378;2023-08-08T00:00:41;45999.03;;;-146.10;100.00
12763;BME280;6445;52.490;13.378;2023-08-08T00:03:07;45329.94;;;-146.10;100.00
12763;BME280;6445;52.490;13.378;2023-08-08T00:05:33;44483.25;;;-146.10;100.00
12763;BME280;6445;52.490;13.378;2023-08-08T00:07:58;44187.75;;;-146.10;100.00
12763;BME280;6445;52.490;13.378;2023-08-08T00:10:24;44221.69;;;-146.10;100.00
12763;BME280;6445;52.490;13.378;2023-08-08T00:12:49;43493.03;;;-146.10;100.00
12763;BME280;6445;52.490;13.378;2023-08-08T00:15:15;42181.75;;;-146.10;100.00
12763;BME280;6445;52.490;13.378;2023-08-08T00:17:40;41772.69;;;-146.10;100.00
12763;BME280;6445;52.490;13.378;2023-08-08T00:20:06;41148.19;;;-146.10;100.00
12763;BME280;6445;52.490;13.378;2023-08-08T00:22:32;40938.72;;;-146.10;100.00
12763;BME280;6445;52.490;13.378;2023-08-08T00:24:57;40549.75;;;-146.10;100.00
12763;BME280;6445;52.490;13.378;2023-08-08T00:27:23;40813.06;;;-146.10;100.00
12763;BME280;6445;52.490;13.378;2023-08-08T00:29:48;39959.38;;;-146.10;100.00
12763;BME280;6445;52.490;13.378;2023-08-08T00:32:13;40166.78;;;-146.10;100.00
12763;BME280;6445;52.490;13.378;2023-08-08T00:34:38;39684.16;;;-146.10;100.00
12763;BME280;6445;52.490;13.378;2023-08-08T00:37:04;39498.69;;;-146.10;100.00
12763;BME280;6445;52.490;13.378;2023-08-08T00:39:29;39341.16;;;-146.10;100.00
12763;BME280;6445;52.490;13.378;2023-08-08T00:41:54;39761.91;;;-146.10;100.00
12763;BME280;6445;52.490;13.378;2023-08-08T00:44:19;39155.69;;;-146.10;100.00
12763;BME280;6445;52.490;13.378;2023-08-08T00:46:44;39622.31;;;-146.10;100.00
12763;BME280;6445;52.490;13.378;2023-08-08T00:49:10;40346.28;;;-146.10;100.00
12763;BME280;6445;52.490;13.378;2023-08-08T00:51:35;40320.38;;;-146.10;100.00
12763;BME280;6445;52.490;13.378;2023-08-08T00:54:01;40276.47;;;-146.10;100.00
12763;BME280;6445;52.490;13.378;2023-08-08T00:56:26;40575.69;;;-146.10;100.00
12763;BME280;6445;52.490;13.378;2023-08-08T00:58:51;40725.28;;;-146.10;100.00
12763;BME280;6445;52.490;13.378;2023-08-08T01:01:17;39656.22;;;-146.10;100.00
12763;BME280;6445;52.490;13.378;2023-08-08T01:03:43;39618.34;;;-146.10;100.00
12763;BME280;6445;52.490;13.378;2023-08-08T01:06:16;39420.91;;;-146.10;100.00
12763;BME280;6445;52.490;13.378;2023-08-08T01:09:13;39644.25;;;-146.10;100.00
12763;BME280;6445;52.490;13.378;2023-08-08T01:11:42;39771.91;;;-146.10;100.00
12763;BME280;6445;52.490;13.378;2023-08-08T01:14:08;40509.84;;;-146.10;100.00
12763;BME280;6445;52.490;13.378;2023-08-08T01:16:34;40579.66;;;-146.10;100.00
12763;BME280;6445;52.490;13.378;2023-08-08T01:19:00;40615.56;;;-146.10;100.00
12763;BME280;6445;52.490;13.378;2023-08-08T01:21:27;40900.84;;;-146.10;100.00
12763;BME280;6445;52.490;13.378;2023-08-08T01:24:15;39911.50;;;-146.10;100.00
12763;BME280;6445;52.490;13.378;2023-08-08T01:26:41;39865.63;;;-146.10;100.00
12763;BME280;6445;52.490;13.378;2023-08-08T01:29:06;41936.31;;;-146.10;100.00
12763;BME280;6445;52.490;13.378;2023-08-08T01:31:32;41437.50;;;-146.10;100.00
12763;BME280;6445;52.490;13.378;2023-08-08T01:33:57;41601.09;;;-146.10;100.00
12763;BME280;6445;52.490;13.378;2023-08-08T01:36:29;42329.41;;;-146.10;100.00
12763;BME280;6445;52.490;13.378;2023-08-08T01:38:59;42495.06;;;-146.10;100.00
12763;BME280;6445;52.490;13.378;2023-08-08T01:41:30;42062.03;;;-146.10;100.00
12763;BME280;6445;52.490;13.378;2023-08-08T01:43:56;41888.41;;;-146.10;100.00
12763;BME280;6445;52.490;13.378;2023-08-08T01:46:22;42674.69;;;-146.10;100.00
12763;BME280;6445;52.490;13.378;2023-08-08T01:48:49;41808.59;;;-146.10;100.00
12763;BME280;6445;52.490;13.378;2023-08-08T01:51:15;42042.06;;;-146.10;100.00
12763;BME280;6445;52.490;13.378;2023-08-08T01:53:40;42868.28;;;-146.10;100.00
12763;BME280;6445;52.490;13.378;2023-08-08T01:56:05;42311.47;;;-146.10;100.00
12763;BME280;6445;52.490;13.378;2023-08-08T01:58:30;43353.28;;;-146.10;100.00
12763;BME280;6445;52.490;13.378;2023-08-08T02:00:56;43495.03;;;-146.10;100.00
12763;BME280;6445;52.490;13.378;2023-08-08T02:03:21;44010.06;;;-146.10;100.00
12763;BME280;6445;52.490;13.378;2023-08-08T02:05:46;45152.22;;;-146.10;100.00
12763;BME280;6445;52.490;13.378;2023-08-08T02:08:11;45407.84;;;-146.10;100.00
12763;BME280;6445;52.490;13.378;2023-08-08T02:10:37;45296.00;;;-146.10;100.00
12763;BME280;6445;52.490;13.378;2023-08-08T02:13:03;45607.56;;;-146.10;100.00
12763;BME280;6445;52.490;13.378;2023-08-08T02:15:28;45607.56;;;-146.10;100.00
12763;BME280;6445;52.490;13.378;2023-08-08T02:17:53;45292.00;;;-146.10;100.00
12763;BME280;6445;52.490;13.378;2023-08-08T02:20:19;44844.69;;;-146.10;100.00
12763;BME280;6445;52.490;13.378;2023-08-08T02:22:44;44495.25;;;-146.10;100.00
12763;BME280;6445;52.490;13.378;2023-08-08T02:25:09;44067.97;;;-146.10;100.00
12763;BME280;6445;52.490;13.378;2023-08-08T02:27:34;43441.13;;;-146.10;100.00
12763;BME280;6445;52.490;13.378;2023-08-08T02:30:00;42940.13;;;-146.10;100.00
12763;BME280;6445;52.490;13.378;2023-08-08T02:32:25;42582.88;;;-146.10;100.00
12763;BME280;6445;52.490;13.378;2023-08-08T02:34:50;41700.84;;;-146.10;100.00
12763;BME280;6445;52.490;13.378;2023-08-08T02:37:15;41421.53;;;-146.10;100.00
12763;BME280;6445;52.490;13.378;2023-08-08T02:39:43;40693.38;;;-146.10;100.00
12763;BME280;6445;52.490;13.378;2023-08-08T02:42:08;40077.03;;;-146.10;100.00
12763;BME280;6445;52.490;13.378;2023-08-08T02:44:34;39450.81;;;-146.10;100.00
12763;BME280;6445;52.490;13.378;2023-08-08T02:46:59;38551.56;;;-146.10;100.00
12763;BME280;6445;52.490;13.378;2023-08-08T02:49:24;38130.94;;;-146.10;100.00
12763;BME280;6445;52.490;13.378;2023-08-08T02:51:49;37279.81;;;-146.10;100.00
12763;BME280;6445;52.490;13.378;2023-08-08T02:54:14;36456.75;;;-146.10;100.00
12763;BME280;6445;52.490;13.378;2023-08-08T02:56:40;35757.41;;;-146.10;100.00
12763;BME280;6445;52.490;13.378;2023-08-08T02:59:05;35337.06;;;-146.10;100.00
12763;BME280;6445;52.490;13.378;2023-08-08T03:01:31;34962.59;;;-146.10;100.00
12763;BME280;6445;52.490;13.378;2023-08-08T03:03:56;34450.72;;;-146.10;100.00
12763;BME280;6445;52.490;13.378;2023-08-08T03:06:21;33697.97;;;-146.10;100.00
12763;BME280;6445;52.490;13.378;2023-08-08T03:08:46;33773.63;;;-146.10;100.00
12763;BME280;6445;52.490;13.378;2023-08-08T03:11:12;33504.81;;;-146.10;100.00
12763;BME280;6445;52.490;13.378;2023-08-08T03:13:37;33755.69;;;-146.10;100.00
12763;BME280;6445;52.490;13.378;2023-08-08T03:16:03;33214.13;;;-146.10;100.00
12763;BME280;6445;52.490;13.378;2023-08-08T03:18:28;32457.63;;;-146.10;100.00
12763;BME280;6445;52.490;13.378;2023-08-08T03:20:53;32029.66;;;-146.10;100.00
12763;BME280;6445;52.490;13.378;2023-08-08T03:23:18;31382.84;;;-146.10;100.00
12763;BME280;6445;52.490;13.378;2023-08-08T03:25:44;31110.22;;;-146.10;100.00
12763;BME280;6445;52.490;13.378;2023-08-08T03:28:09;31189.81;;;-146.10;100.00
12763;BME280;6445;52.490;13.378;2023-08-08T03:30:36;30395.91;;;-146.10;100.00
12763;BME280;6445;52.490;13.378;2023-08-08T03:33:02;30298.44;;;-146.10;100.00
12763;BME280;6445;52.490;13.378;2023-08-08T03:35:27;29894.59;;;-146.10;100.00
12763;BME280;6445;52.490;13.378;2023-08-08T03:37:52;29073.09;;;-146.10;100.00
12763;BME280;6445;52.490;13.378;2023-08-08T03:40:18;29100.94;;;-146.10;100.00
12763;BME280;6445;52.490;13.378;2023-08-08T03:42:43;28945.81;;;-146.10;100.00
12763;BME280;6445;52.490;13.378;2023-08-08T03:45:08;28400.91;;;-146.10;100.00
12763;BME280;6445;52.490;13.378;2023-08-08T03:47:34;28043.00;;;-146.10;100.00
12763;BME280;6445;52.490;13.378;2023-08-08T03:49:59;27691.06;;;-146.10;100.00
12763;BME280;6445;52.490;13.378;2023-08-08T03:52:24;27440.56;;;-146.10;100.00
12763;BME280;6445;52.490;13.378;2023-08-08T03:54:50;27365.03;;;-146.10;100.00
12763;BME280;6445;52.490;13.378;2023-08-08T03:57:15;27249.72;;;-146.10;100.00
12763;BME280;6445;52.490;13.378;2023-08-08T03:59:40;26695.13;;;-146.10;100.00
12763;BME280;6445;52.490;13.378;2023-08-08T04:02:05;26530.16;;;-146.10;100.00
12763;BME280;6445;52.490;13.378;2023-08-08T04:04:31;26462.56;;;-146.10;100.00
12763;BME280;6445;52.490;13.378;2023-08-08T04:06:56;26410.91;;;-146.10;100.00
12763;BME280;6445;52.490;13.378;2023-08-08T04:09:22;26456.63;;;-146.10;100.00
12763;BME280;6445;52.490;13.378;2023-08-08T04:11:47;26255.88;;;-146.10;100.00
12763;BME280;6445;52.490;13.378;2023-08-08T04:14:12;26124.72;;;-146.10;100.00
12763;BME280;6445;52.490;13.378;2023-08-08T04:16:38;25580.22;;;-146.10;100.00
12763;BME280;6445;52.490;13.378;2023-08-08T04:19:04;25568.28;;;-146.10;100.00
12763;BME280;6445;52.490;13.378;2023-08-08T04:21:29;25572.25;;;-146.10;100.00
12763;BME280;6445;52.490;13.378;2023-08-08T04:23:57;25363.63;;;-146.10;100.00
12763;BME280;6445;52.490;13.378;2023-08-08T04:26:22;25459.00;;;-146.10;100.00
12763;BME280;6445;52.490;13.378;2023-08-08T04:28:47;25202.69;;;-146.10;100.00
12763;BME280;6445;52.490;13.378;2023-08-08T04:31:13;25379.50;;;-146.10;100.00
12763;BME280;6445;52.490;13.378;2023-08-08T04:33:39;25296.06;;;-146.10;100.00
12763;BME280;6445;52.490;13.378;2023-08-08T04:36:04;24902.66;;;-146.10;100.00
12763;BME280;6445;52.490;13.378;2023-08-08T04:38:29;24582.81;;;-146.10;100.00
12763;BME280;6445;52.490;13.378;2023-08-08T04:40:55;24415.94;;;-146.10;100.00
12763;BME280;6445;52.490;13.378;2023-08-08T04:43:20;24358.34;;;-146.10;100.00
12763;BME280;6445;52.490;13.378;2023-08-08T04:45:45;24558.97;;;-146.10;100.00
12763;BME280;6445;52.490;13.378;2023-08-08T04:48:10;24483.47;;;-146.10;100.00
12763;BME280;6445;52.490;13.378;2023-08-08T04:50:36;24594.72;;;-146.10;100.00
12763;BME280;6445;52.490;13.378;2023-08-08T04:53:01;24576.84;;;-146.10;100.00
12763;BME280;6445;52.490;13.378;2023-08-08T04:55:26;24707.97;;;-146.10;100.00
12763;BME280;6445;52.490;13.378;2023-08-08T04:57:51;24940.41;;;-146.10;100.00
12763;BME280;6445;52.490;13.378;2023-08-08T05:00:17;24326.56;;;-146.10;100.00
12763;BME280;6445;52.490;13.378;2023-08-08T05:02:42;25496.75;;;-146.10;100.00
12763;BME280;6445;52.490;13.378;2023-08-08T05:05:08;26675.25;;;-146.10;100.00
12763;BME280;6445;52.490;13.378;2023-08-08T05:07:34;27068.81;;;-146.10;100.00
12763;BME280;6445;52.490;13.378;2023-08-08T05:10:02;27013.16;;;-146.10;100.00
12763;BME280;6445;52.490;13.378;2023-08-08T05:12:28;28927.91;;;-146.10;100.00
12763;BME280;6445;52.490;13.378;2023-08-08T05:14:53;29978.13;;;-146.10;100.00
12763;BME280;6445;52.490;13.378;2023-08-08T05:17:18;29307.78;;;-146.10;100.00
12763;BME280;6445;52.490;13.378;2023-08-08T05:19:43;28202.06;;;-146.10;100.00
12763;BME280;6445;52.490;13.378;2023-08-08T05:22:09;27096.66;;;-146.10;100.00
12763;BME280;6445;52.490;13.378;2023-08-08T05:24:34;27074.78;;;-146.10;100.00
12763;BME280;6445;52.490;13.378;2023-08-08T05:27:00;27575.75;;;-146.10;100.00
12763;BME280;6445;52.490;13.378;2023-08-08T05:29:26;28039.00;;;-146.10;100.00
12763;BME280;6445;52.490;13.378;2023-08-08T05:31:51;30433.72;;;-146.10;100.00
12763;BME280;6445;52.490;13.378;2023-08-08T05:34:17;35245.44;;;-146.10;100.00
12763;BME280;6445;52.490;13.378;2023-08-08T05:36:42;35050.22;;;-146.10;100.00
12763;BME280;6445;52.490;13.378;2023-08-08T05:39:07;43932.22;;;-146.10;100.00
12763;BME280;6445;52.490;13.378;2023-08-08T05:41:34;44131.84;;;-146.10;100.00
12763;BME280;6445;52.490;13.378;2023-08-08T05:43:59;46704.22;;;-146.10;100.00
12763;BME280;6445;52.490;13.378;2023-08-08T05:46:25;47643.28;;;-146.10;100.00
12763;BME280;6445;52.490;13.378;2023-08-08T05:48:50;46470.47;;;-146.10;100.00
12763;BME280;6445;52.490;13.378;2023-08-08T05:51:15;46919.97;;;-146.10;100.00
12763;BME280;6445;52.490;13.378;2023-08-08T05:53:40;44922.56;;;-146.10;100.00
12763;BME280;6445;52.490;13.378;2023-08-08T05:56:06;40352.28;;;-146.10;100.00
12763;BME280;6445;52.490;13.378;2023-08-08T05:58:31;35643.84;;;-146.10;100.00
12763;BME280;6445;52.490;13.378;2023-08-08T06:00:56;33966.78;;;-146.10;100.00
12763;BME280;6445;52.490;13.378;2023-08-08T06:03:21;35811.22;;;-146.10;100.00
12763;BME280;6445;52.490;13.378;2023-08-08T06:05:47;37917.63;;;-146.10;100.00
12763;BME280;6445;52.490;13.378;2023-08-08T06:08:12;41571.16;;;-146.10;100.00
12763;BME280;6445;52.490;13.378;2023-08-08T06:10:39;47445.47;;;-146.10;100.00
12763;BME280;6445;52.490;13.378;2023-08-08T06:13:04;45609.56;;;-146.10;100.00
12763;BME280;6445;52.490;13.378;2023-08-08T06:15:29;42381.31;;;-146.10;100.00
12763;BME280;6445;52.490;13.378;2023-08-08T06:17:55;43866.34;;;-146.10;100.00
12763;BME280;6445;52.490;13.378;2023-08-08T06:20:20;41527.28;;;-146.10;100.00
12763;BME280;6445;52.490;13.378;2023-08-08T06:22:45;38346.22;;;-146.10;100.00
12763;BME280;6445;52.490;13.378;2023-08-08T06:25:11;38348.22;;;-146.10;100.00
12763;BME280;6445;52.490;13.378;2023-08-08T06:27:36;40543.75;;;-146.10;100.00
12763;BME280;6445;52.490;13.378;2023-08-08T06:30:01;45278.03;;;-146.10;100.00
12763;BME280;6445;52.490;13.378;2023-08-08T06:32:28;42249.59;;;-146.10;100.00
12763;BME280;6445;52.490;13.378;2023-08-08T06:34:53;38946.34;;;-146.10;100.00
12763;BME280;6445;52.490;13.378;2023-08-08T06:37:19;37829.91;;;-146.10;100.00
12763;BME280;6445;52.490;13.378;2023-08-08T06:39:44;37062.56;;;-146.10;100.00
12763;BME280;6445;52.490;13.378;2023-08-08T06:42:09;35835.13;;;-146.10;100.00
12763;BME280;6445;52.490;13.378;2023-08-08T06:44:43;35137.88;;;-146.10;100.00
12763;BME280;6445;52.490;13.378;2023-08-08T06:47:10;34845.06;;;-146.10;100.00
12763;BME280;6445;52.490;13.378;2023-08-08T06:49:36;36048.31;;;-146.10;100.00
12763;BME280;6445;52.490;13.378;2023-08-08T06:52:02;38105.00;;;-146.10;100.00
12763;BME280;6445;52.490;13.378;2023-08-08T06:54:27;38109.00;;;-146.10;100.00
12763;BME280;6445;52.490;13.378;2023-08-08T06:56:53;41104.31;;;-146.10;100.00
12763;BME280;6445;52.490;13.378;2023-08-08T06:59:19;40073.03;;;-146.10;100.00
12763;BME280;6445;52.490;13.378;2023-08-08T07:01:44;40539.78;;;-146.10;100.00
12763;BME280;6445;52.490;13.378;2023-08-08T07:04:09;40571.69;;;-146.10;100.00
12763;BME280;6445;52.490;13.378;2023-08-08T07:06:34;42782.44;;;-146.10;100.00
12763;BME280;6445;52.490;13.378;2023-08-08T07:09:01;44986.47;;;-146.10;100.00
12763;BME280;6445;52.490;13.378;2023-08-08T07:11:26;47939.06;;;-146.10;100.00
12763;BME280;6445;52.490;13.378;2023-08-08T07:13:52;50827.84;;;-146.10;89.29
12763;BME280;6445;52.490;13.378;2023-08-08T07:16:17;50835.84;;;-146.10;90.13
12763;BME280;6445;52.490;13.378;2023-08-08T07:18:42;50621.88;;;-146.10;92.36
12763;BME280;6445;52.490;13.378;2023-08-08T07:21:07;50297.91;;;-146.10;95.00
12763;BME280;6445;52.490;13.378;2023-08-08T07:23:33;50237.94;;;-146.10;94.88
12763;BME280;6445;52.490;13.378;2023-08-08T07:25:58;50467.88;;;-146.10;93.39
12763;BME280;6445;52.490;13.378;2023-08-08T07:28:24;50219.94;;;-146.10;95.69
12763;BME280;6445;52.490;13.378;2023-08-08T07:30:49;50003.97;;;-146.10;97.14
12763;BME280;6445;52.490;13.378;2023-08-08T07:33:14;48636.56;;;-146.10;100.00
12763;BME280;6445;52.490;13.378;2023-08-08T07:35:39;50403.91;;;-146.10;93.05
12763;BME280;6445;52.490;13.378;2023-08-08T07:38:05;50653.88;;;-146.10;91.77
12763;BME280;6445;52.490;13.378;2023-08-08T07:40:30;51611.88;;;-146.10;78.52
12763;BME280;6445;52.490;13.378;2023-08-08T07:42:55;51727.91;;;-146.10;78.76
12763;BME280;6445;52.490;13.378;2023-08-08T07:45:21;51601.88;;;-146.10;80.74
12763;BME280;6445;52.490;13.378;2023-08-08T07:47:46;51793.91;;;-146.10;75.86
12763;BME280;6445;52.490;13.378;2023-08-08T07:50:11;51581.88;;;-146.10;82.49
12763;BME280;6445;52.490;13.378;2023-08-08T07:52:37;51099.84;;;-146.10;89.66
12763;BME280;6445;52.490;13.378;2023-08-08T07:55:03;51035.84;;;-146.10;88.82
12763;BME280;6445;52.490;13.378;2023-08-08T07:57:29;50831.84;;;-146.10;91.42
12763;BME280;6445;52.490;13.378;2023-08-08T07:59:59;50553.88;;;-146.10;93.26
12763;BME280;6445;52.490;13.378;2023-08-08T08:02:30;49950.00;;;-146.10;96.91
12763;BME280;6445;52.490;13.378;2023-08-08T08:04:55;49981.97;;;-146.10;95.82
12763;BME280;6445;52.490;13.378;2023-08-08T08:07:20;51177.84;;;-146.10;84.26
12763;BME280;6445;52.490;13.378;2023-08-08T08:09:46;51833.94;;;-146.10;72.94
12763;BME280;6445;52.490;13.378;2023-08-08T08:12:11;51903.94;;;-146.10;75.09
12763;BME280;6445;52.490;13.378;2023-08-08T08:14:36;51711.91;;;-146.10;79.81
12763;BME280;6445;52.490;13.378;2023-08-08T08:17:02;51727.91;;;-146.10;78.58
12763;BME280;6445;52.490;13.378;2023-08-08T08:19:27;51845.94;;;-146.10;74.30
12763;BME280;6445;52.490;13.378;2023-08-08T08:21:53;52242.03;;;-146.10;62.21
12763;BME280;6445;52.490;13.378;2023-08-08T08:24:18;52236.03;;;-146.10;62.71
12763;BME280;6445;52.490;13.378;2023-08-08T08:26:43;52320.06;;;-146.10;59.02
12763;BME280;6445;52.490;13.378;2023-08-08T08:29:09;52312.06;;;-146.10;59.79
12763;BME280;6445;52.490;13.378;2023-08-08T08:31:34;52376.06;;;-146.10;56.81
12763;BME280;6445;52.490;13.378;2023-08-08T08:33:59;52254.03;;;-146.10;61.98
12763;BME280;6445;52.490;13.378;2023-08-08T08:36:24;52228.03;;;-146.10;64.16
12763;BME280;6445;52.490;13.378;2023-08-08T08:38:51;52074.00;;;-146.10;72.26
12763;BME280;6445;52.490;13.378;2023-08-08T08:41:18;52080.00;;;-146.10;71.80
12763;BME280;6445;52.490;13.378;2023-08-08T08:43:44;51977.97;;;-146.10;74.25
12763;BME280;6445;52.490;13.378;2023-08-08T08:46:11;51845.94;;;-146.10;79.17
12763;BME280;6445;52.490;13.378;2023-08-08T08:48:36;51737.91;;;-146.10;80.53
12763;BME280;6445;52.490;13.378;2023-08-08T08:51:02;51893.94;;;-146.10;74.76
12763;BME280;6445;52.490;13.378;2023-08-08T08:53:28;51957.97;;;-146.10;73.16
12763;BME280;6445;52.490;13.378;2023-08-08T08:55:53;52041.97;;;-146.10;70.57
12763;BME280;6445;52.490;13.378;2023-08-08T08:58:19;51969.97;;;-146.10;73.60
12763;BME280;6445;52.490;13.378;2023-08-08T09:00:46;51943.97;;;-146.10;75.09
12763;BME280;6445;52.490;13.378;2023-08-08T09:03:11;52033.97;;;-146.10;70.01
12763;BME280;6445;52.490;13.378;2023-08-08T09:05:38;52148.00;;;-146.10;65.69
12763;BME280;6445;52.490;13.378;2023-08-08T09:08:05;52106.00;;;-146.10;69.00
12763;BME280;6445;52.490;13.378;2023-08-08T09:10:31;51997.97;;;-146.10;73.42
12763;BME280;6445;52.490;13.378;2023-08-08T09:12:57;51969.97;;;-146.10;75.05
12763;BME280;6445;52.490;13.378;2023-08-08T09:15:22;52104.00;;;-146.10;67.70
12763;BME280;6445;52.490;13.378;2023-08-08T09:17:48;52204.03;;;-146.10;64.41
12763;BME280;6445;52.490;13.378;2023-08-08T09:20:13;52210.03;;;-146.10;63.39
12763;BME280;6445;52.490;13.378;2023-08-08T09:22:38;52220.03;;;-146.10;62.90
12763;BME280;6445;52.490;13.378;2023-08-08T09:25:05;52232.03;;;-146.10;62.13
12763;BME280;6445;52.490;13.378;2023-08-08T09:27:31;52276.03;;;-146.10;59.88
12763;BME280;6445;52.490;13.378;2023-08-08T09:29:56;52342.06;;;-146.10;57.31
12763;BME280;6445;52.490;13.378;2023-08-08T09:32:22;52258.03;;;-146.10;59.88
12763;BME280;6445;52.490;13.378;2023-08-08T09:34:47;52270.03;;;-146.10;60.08
12763;BME280;6445;52.490;13.378;2023-08-08T09:37:12;52316.06;;;-146.10;57.37
12763;BME280;6445;52.490;13.378;2023-08-08T09:39:39;52466.09;;;-146.10;50.16
12763;BME280;6445;52.490;13.378;2023-08-08T09:42:04;52470.13;;;-146.10;48.24
12763;BME280;6445;52.490;13.378;2023-08-08T09:44:30;52408.09;;;-146.10;52.43
12763;BME280;6445;52.490;13.378;2023-08-08T09:46:56;52382.09;;;-146.10;55.09
12763;BME280;6445;52.490;13.378;2023-08-08T09:49:22;52370.06;;;-146.10;53.14
12763;BME280;6445;52.490;13.378;2023-08-08T09:51:49;52540.13;;;-146.10;48.79
12763;BME280;6445;52.490;13.378;2023-08-08T09:54:15;52312.06;;;-146.10;54.02
12763;BME280;6445;52.490;13.378;2023-08-08T09:56:41;52298.06;;;-146.10;59.15
12763;BME280;6445;52.490;13.378;2023-08-08T09:59:07;52256.03;;;-146.10;61.64
12763;BME280;6445;52.490;13.378;2023-08-08T10:01:34;52190.03;;;-146.10;68.34
12763;BME280;6445;52.490;13.378;2023-08-08T10:03:59;51935.94;;;-146.10;79.30
12763;BME280;6445;52.490;13.378;2023-08-08T10:06:26;51495.88;;;-146.10;88.26
12763;BME280;6445;52.490;13.378;2023-08-08T10:08:52;51543.88;;;-146.10;86.63
12763;BME280;6445;52.490;13.378;2023-08-08T10:11:18;51041.84;;;-146.10;91.27
12763;BME280;6445;52.490;13.378;2023-08-08T10:13:49;51295.84;;;-146.10;87.96
12763;BME280;6445;52.490;13.378;2023-08-08T10:16:16;51597.88;;;-146.10;81.50
12763;BME280;6445;52.490;13.378;2023-08-08T10:18:41;51695.91;;;-146.10;79.49
12763;BME280;6445;52.490;13.378;2023-08-08T10:21:06;51681.91;;;-146.10;80.49
12763;BME280;6445;52.490;13.378;2023-08-08T10:23:39;51339.84;;;-146.10;87.89
12763;BME280;6445;52.490;13.378;2023-08-08T10:26:16;51655.91;;;-146.10;79.49
12763;BME280;6445;52.490;13.378;2023-08-08T10:28:52;51935.94;;;-146.10;72.17
12763;BME280;6445;52.490;13.378;2023-08-08T10:31:20;52126.00;;;-146.10;64.58
12763;BME280;6445;52.490;13.378;2023-08-08T10:33:45;52182.03;;;-146.10;63.58
12763;BME280;6445;52.490;13.378;2023-08-08T10:36:10;52170.00;;;-146.10;63.36
12763;BME280;6445;52.490;13.378;2023-08-08T10:41:09;52224.03;;;-146.10;60.11
12763;BME280;6445;52.490;13.378;2023-08-08T10:43:35;52186.03;;;-146.10;62.61
12763;BME280;6445;52.490;13.378;2023-08-08T10:46:01;52190.03;;;-146.10;62.58
12763;BME280;6445;52.490;13.378;2023-08-08T10:48:26;52190.03;;;-146.10;62.95
12763;BME280;6445;52.490;13.378;2023-08-08T10:50:55;52166.00;;;-146.10;65.56
12763;BME280;6445;52.490;13.378;2023-08-08T10:53:23;51751.91;;;-146.10;83.34
12763;BME280;6445;52.490;13.378;2023-08-08T10:55:57;51219.84;;;-146.10;90.71
12763;BME280;6445;52.490;13.378;2023-08-08T10:58:22;50979.84;;;-146.10;91.60
12763;BME280;6445;52.490;13.378;2023-08-08T11:00:48;51727.91;;;-146.10;78.69
12763;BME280;6445;52.490;13.378;2023-08-08T11:03:14;51923.94;;;-146.10;73.48
12763;BME280;6445;52.490;13.378;2023-08-08T11:05:39;52005.97;;;-146.10;71.01
12763;BME280;6445;52.490;13.378;2023-08-08T11:08:06;52100.00;;;-146.10;67.19
12763;BME280;6445;52.490;13.378;2023-08-08T11:10:36;52174.00;;;-146.10;64.66
12763;BME280;6445;52.490;13.378;2023-08-08T11:13:03;52224.03;;;-146.10;61.56
12763;BME280;6445;52.490;13.378;2023-08-08T11:15:31;52228.03;;;-146.10;60.83
12763;BME280;6445;52.490;13.378;2023-08-08T11:17:57;52280.03;;;-146.10;59.13
12763;BME280;6445;52.490;13.378;2023-08-08T11:20:23;52238.03;;;-146.10;58.92
12763;BME280;6445;52.490;13.378;2023-08-08T11:22:57;52216.03;;;-146.10;59.98
12763;BME280;6445;52.490;13.378;2023-08-08T11:25:25;51863.94;;;-146.10;82.52
12763;BME280;6445;52.490;13.378;2023-08-08T11:27:52;47469.44;;;-146.10;100.00
12763;BME280;6445;52.490;13.378;2023-08-08T11:30:18;49128.31;;;-146.10;100.00
12763;BME280;6445;52.490;13.378;2023-08-08T11:32:43;49754.06;;;-146.10;100.00
12763;BME280;6445;52.490;13.378;2023-08-08T11:35:08;46758.16;;;-146.10;100.00
12763;BME280;6445;52.490;13.378;2023-08-08T11:37:34;47237.66;;;-146.10;100.00
12763;BME280;6445;52.490;13.378;2023-08-08T11:40:00;44942.53;;;-146.10;100.00
12763;BME280;6445;52.490;13.378;2023-08-08T11:42:25;45349.91;;;-146.10;100.00
12763;BME280;6445;52.490;13.378;2023-08-08T11:44:51;47807.16;;;-146.10;100.00
12763;BME280;6445;52.490;13.378;2023-08-08T11:47:17;47239.66;;;-146.10;100.00
12763;BME280;6445;52.490;13.378;2023-08-08T11:49:42;47853.13;;;-146.10;100.00
12763;BME280;6445;52.490;13.378;2023-08-08T11:52:08;50811.84;;;-146.10;92.16
12763;BME280;6445;52.490;13.378;2023-08-08T11:54:33;51039.84;;;-146.10;90.31
12763;BME280;6445;52.490;13.378;2023-08-08T11:57:01;51155.84;;;-146.10;90.43
12763;BME280;6445;52.490;13.378;2023-08-08T11:59:27;50913.84;;;-146.10;92.50
12763;BME280;6445;52.490;13.378;2023-08-08T12:01:52;51087.84;;;-146.10;89.96
12763;BME280;6445;52.490;13.378;2023-08-08T12:04:20;51093.84;;;-146.10;89.41
12763;BME280;6445;52.490;13.378;2023-08-08T12:06:45;51641.91;;;-146.10;82.09
12763;BME280;6445;52.490;13.378;2023-08-08T12:09:11;51625.91;;;-146.10;81.87
12763;BME280;6445;52.490;13.378;2023-08-08T12:11:39;51951.97;;;-146.10;71.90
12763;BME280;6445;52.490;13.378;2023-08-08T12:14:07;52074.00;;;-146.10;69.14
12763;BME280;6445;52.490;13.378;2023-08-08T12:16:34;52190.03;;;-146.10;64.39
12763;BME280;6445;52.490;13.378;2023-08-08T12:19:07;52202.03;;;-146.10;62.25
12763;BME280;6445;52.490;13.378;2023-08-08T12:21:34;52304.06;;;-146.10;58.21
12763;BME280;6445;52.490;13.378;2023-08-08T12:23:59;52336.06;;;-146.10;57.46
12763;BME280;6445;52.490;13.378;2023-08-08T12:26:25;52410.09;;;-146.10;53.37
12763;BME280;6445;52.490;13.378;2023-08-08T12:28:50;52336.06;;;-146.10;55.06